createdAt,value
2017-05-21T12:00:34.680Z,22.90
2017-05-21T12:03:03.027Z,22.90
2017-05-21T12:05:31.437Z,22.70
2017-05-21T12:07:59.923Z,22.60
2017-05-21T12:10:28.308Z,22.60
2017-05-21T12:12:56.667Z,22.40
2017-05-21T12:15:24.995Z,22.30
2017-05-21T12:17:53.369Z,22.20
2017-05-21T12:20:21.706Z,22.30
2017-05-21T12:22:50.048Z,22.70
2017-05-21T12:25:18.373Z,23.10
2017-05-21T12:27:46.713Z,23.60
2017-05-21T12:30:15.031Z,23.40
2017-05-21T12:32:43.389Z,23.10
2017-05-21T12:35:11.708Z,23.10
2017-05-21T12:37:40.060Z,22.70
2017-05-21T12:40:08.381Z,22.30
2017-05-21T12:42:36.724Z,22.00
2017-05-21T12:45:05.040Z,21.80
2017-05-21T12:47:33.390Z,21.90
2017-05-21T12:50:01.717Z,22.10
2017-05-21T12:52:30.058Z,22.20
2017-05-21T12:54:58.378Z,22.00
2017-05-21T12:57:26.741Z,22.00
2017-05-21T12:59:55.060Z,22.10
2017-05-21T13:02:23.419Z,22.20
2017-05-21T13:04:51.736Z,22.20
2017-05-21T13:07:20.082Z,22.50
2017-05-21T13:09:48.396Z,23.00
2017-05-21T13:12:16.747Z,23.30
2017-05-21T13:14:45.080Z,23.60
2017-05-21T13:17:13.435Z,23.40
2017-05-21T13:19:41.770Z,23.50
2017-05-21T13:22:10.105Z,23.70
2017-05-21T13:24:38.426Z,24.00
2017-05-21T13:27:06.784Z,24.20
2017-05-21T13:29:35.097Z,24.30
2017-05-21T13:32:03.445Z,24.20
2017-05-21T13:34:31.770Z,24.10
2017-05-21T13:37:00.119Z,24.00
2017-05-21T13:39:28.436Z,24.00
2017-05-21T13:41:56.763Z,23.90
2017-05-21T13:44:25.130Z,24.00
2017-05-21T13:46:53.473Z,24.50
2017-05-21T13:49:21.822Z,24.50
2017-05-21T13:51:50.135Z,24.40
2017-05-21T13:54:18.484Z,24.10
2017-05-21T13:56:47.508Z,23.90
2017-05-21T13:59:15.855Z,23.80
2017-05-21T14:01:44.168Z,23.90
2017-05-21T14:04:12.517Z,23.60
2017-05-21T14:06:40.837Z,23.20
2017-05-21T14:09:09.215Z,22.90
2017-05-21T14:11:37.537Z,22.80
2017-05-21T14:14:05.891Z,22.80
2017-05-21T14:16:34.204Z,22.90
2017-05-21T14:19:02.567Z,23.10
2017-05-21T14:21:30.940Z,23.00
2017-05-21T14:23:59.286Z,23.20
2017-05-21T14:26:27.601Z,23.70
2017-05-21T14:28:55.943Z,23.70
2017-05-21T14:31:24.262Z,23.70
2017-05-21T14:33:52.627Z,23.60
2017-05-21T14:36:20.949Z,23.50
2017-05-21T14:38:49.301Z,23.30
2017-05-21T14:41:17.626Z,23.10
2017-05-21T14:43:45.969Z,22.90
2017-05-21T14:46:14.310Z,22.60
2017-05-21T14:48:42.664Z,22.70
2017-05-21T14:51:10.989Z,23.20
2017-05-21T14:53:39.333Z,23.80
2017-05-21T14:56:07.653Z,24.20
2017-05-21T14:58:35.996Z,24.20
2017-05-21T15:01:04.320Z,24.20
2017-05-21T15:03:32.685Z,24.10
2017-05-21T15:06:01.032Z,24.30
2017-05-21T15:08:29.372Z,24.20
2017-05-21T15:10:57.692Z,24.20
2017-05-21T15:13:26.043Z,24.10
2017-05-21T15:15:54.360Z,23.80
2017-05-21T15:18:22.706Z,23.30
2017-05-21T15:20:51.036Z,23.00
2017-05-21T15:23:19.422Z,22.80
2017-05-21T15:25:47.776Z,22.50
2017-05-21T15:28:16.130Z,22.30
2017-05-21T15:30:44.460Z,22.00
2017-05-21T15:33:12.838Z,21.90
2017-05-21T15:35:41.155Z,21.90
2017-05-21T15:38:09.499Z,21.90
2017-05-21T15:40:37.850Z,22.10
2017-05-21T15:43:06.168Z,22.70
2017-05-21T15:45:34.519Z,23.00
2017-05-21T15:48:02.832Z,23.30
2017-05-21T15:50:31.194Z,23.30
2017-05-21T15:52:59.508Z,23.10
2017-05-21T15:55:27.863Z,23.10
2017-05-21T15:57:56.178Z,23.00
2017-05-21T16:00:24.520Z,22.90
2017-05-21T16:02:52.858Z,22.70
2017-05-21T16:05:21.229Z,22.50
2017-05-21T16:07:49.547Z,22.10
2017-05-21T16:10:17.891Z,21.80
2017-05-21T16:12:46.244Z,21.60
2017-05-21T16:15:14.615Z,21.40
2017-05-21T16:17:42.946Z,21.40
2017-05-21T16:20:11.303Z,21.50
2017-05-21T16:22:39.645Z,21.80
2017-05-21T16:25:07.988Z,21.90
2017-05-21T16:27:36.336Z,21.70
2017-05-21T16:30:04.680Z,21.90
2017-05-21T16:32:32.988Z,21.90
2017-05-21T16:35:01.368Z,22.10
2017-05-21T16:37:29.711Z,22.40
2017-05-21T16:39:58.111Z,22.70
2017-05-21T16:42:26.433Z,23.00
2017-05-21T16:44:54.784Z,23.30
2017-05-21T16:47:23.121Z,23.00
2017-05-21T16:49:51.468Z,22.70
2017-05-21T16:52:19.794Z,22.50
2017-05-21T16:54:48.139Z,22.40
2017-05-21T16:57:16.460Z,22.40
2017-05-21T16:59:44.812Z,22.30
2017-05-21T17:02:13.141Z,22.10
2017-05-21T17:04:41.484Z,21.90
2017-05-21T17:07:09.849Z,21.80
2017-05-21T17:09:38.193Z,21.70
2017-05-21T17:12:06.541Z,21.70
2017-05-21T17:14:34.907Z,22.20
2017-05-21T17:17:03.226Z,23.30
2017-05-21T17:19:31.573Z,24.30
2017-05-21T17:21:59.887Z,24.90
2017-05-21T17:24:28.234Z,24.90
2017-05-21T17:26:56.550Z,24.40
2017-05-21T17:29:24.888Z,23.90
2017-05-21T17:31:53.205Z,23.40
2017-05-21T17:34:21.578Z,23.00
2017-05-21T17:36:49.887Z,22.80
2017-05-21T17:39:18.247Z,22.50
2017-05-21T17:41:46.570Z,22.00
2017-05-21T17:44:14.890Z,21.50
2017-05-21T17:46:43.241Z,21.10
2017-05-21T17:49:10.793Z,21.00
2017-05-21T17:51:39.159Z,20.80
2017-05-21T17:54:07.472Z,20.80
2017-05-21T17:56:35.829Z,20.70
2017-05-21T17:59:04.158Z,20.50
2017-05-21T18:01:32.505Z,20.50
2017-05-21T18:04:00.818Z,20.30
2017-05-21T18:06:29.168Z,20.20
2017-05-21T18:08:57.485Z,20.10
2017-05-21T18:11:25.841Z,19.80
2017-05-21T18:13:54.152Z,19.70
2017-05-21T18:16:22.513Z,19.70
2017-05-21T18:18:50.835Z,19.70
2017-05-21T18:21:19.184Z,19.70
2017-05-21T18:23:47.509Z,19.60
2017-05-21T18:26:15.918Z,19.50
2017-05-21T18:28:44.245Z,19.50
2017-05-21T18:31:12.589Z,19.40
2017-05-21T18:33:40.937Z,19.20
2017-05-21T18:36:09.293Z,19.10
2017-05-21T18:38:37.632Z,18.90
2017-05-21T18:41:06.055Z,18.80
2017-05-21T18:43:34.377Z,18.60
2017-05-21T18:46:02.739Z,18.40
2017-05-21T18:48:31.094Z,18.30
2017-05-21T18:50:59.449Z,18.20
2017-05-21T18:53:27.773Z,18.10
2017-05-21T18:55:56.160Z,18.00
2017-05-21T18:58:24.488Z,17.80
2017-05-21T19:00:52.828Z,17.70
2017-05-21T19:03:21.514Z,17.50
2017-05-21T19:05:49.892Z,17.30
2017-05-21T19:08:18.289Z,17.10
2017-05-21T19:10:46.641Z,17.00
2017-05-21T19:13:14.981Z,16.90
2017-05-21T19:15:43.335Z,16.70
2017-05-21T19:18:11.736Z,16.50
2017-05-21T19:20:40.098Z,16.40
2017-05-21T19:23:08.462Z,16.30
2017-05-21T19:25:36.824Z,16.20
2017-05-21T19:28:05.148Z,16.10
2017-05-21T19:30:33.496Z,15.90
2017-05-21T19:33:01.810Z,15.80
2017-05-21T19:35:30.174Z,15.60
2017-05-21T19:37:58.781Z,15.50
2017-05-21T19:40:27.150Z,15.30
2017-05-21T19:42:55.475Z,15.20
2017-05-21T19:45:23.841Z,15.10
2017-05-21T19:47:52.228Z,14.90
2017-05-21T19:50:20.650Z,14.80
2017-05-21T19:52:49.000Z,14.70
2017-05-21T19:55:17.311Z,14.60
2017-05-21T19:57:45.657Z,14.50
2017-05-21T20:00:14.092Z,14.40
2017-05-21T20:02:42.449Z,14.20
2017-05-21T20:05:10.763Z,14.10
2017-05-21T20:07:39.114Z,14.00
2017-05-21T20:10:07.420Z,13.90
2017-05-21T20:12:35.761Z,13.70
2017-05-21T20:15:04.096Z,13.60
2017-05-21T20:17:32.437Z,13.50
2017-05-21T20:20:00.752Z,13.30
2017-05-21T20:22:29.103Z,13.20
2017-05-21T20:24:57.423Z,13.00
2017-05-21T20:27:25.783Z,12.90
2017-05-21T20:29:54.100Z,12.80
2017-05-21T20:32:22.503Z,12.80
2017-05-21T20:34:51.005Z,12.60
2017-05-21T20:37:19.489Z,12.60
2017-05-21T20:39:47.841Z,12.50
2017-05-21T20:42:16.192Z,12.50
2017-05-21T20:44:44.520Z,12.40
2017-05-21T20:47:12.875Z,12.30
2017-05-21T20:49:41.197Z,12.20
2017-05-21T20:52:09.551Z,12.10
2017-05-21T20:54:37.871Z,12.00
2017-05-21T20:57:06.226Z,12.00
2017-05-21T20:59:34.551Z,11.90
2017-05-21T21:02:03.004Z,11.80
2017-05-21T21:04:31.328Z,11.70
2017-05-21T21:06:59.699Z,11.60
2017-05-21T21:09:28.057Z,11.60
2017-05-21T21:11:56.415Z,11.60
2017-05-21T21:14:24.733Z,11.50
2017-05-21T21:16:53.075Z,11.50
2017-05-21T21:19:21.409Z,11.40
2017-05-21T21:21:49.761Z,11.30
2017-05-21T21:24:18.111Z,11.20
2017-05-21T21:26:46.474Z,11.20
2017-05-21T21:29:14.794Z,11.20
2017-05-21T21:31:43.182Z,11.20
2017-05-21T21:34:11.521Z,11.10
2017-05-21T21:36:39.872Z,11.10
2017-05-21T21:39:08.192Z,11.00
2017-05-21T21:41:36.553Z,10.90
2017-05-21T21:44:04.863Z,10.80
2017-05-21T21:46:33.280Z,10.70
2017-05-21T21:49:01.647Z,10.70
2017-05-21T21:51:29.962Z,10.70
2017-05-21T21:53:58.313Z,10.60
2017-05-21T21:56:26.640Z,10.60
2017-05-21T21:58:54.989Z,10.50
2017-05-21T22:01:23.303Z,10.50
2017-05-21T22:03:51.653Z,10.40
2017-05-21T22:06:19.992Z,10.40
2017-05-21T22:08:48.355Z,10.30
2017-05-21T22:11:16.675Z,10.30
2017-05-21T22:13:45.026Z,10.20
2017-05-21T22:16:13.344Z,10.10
2017-05-21T22:18:41.693Z,10.10
2017-05-21T22:21:10.017Z,10.00
2017-05-21T22:23:38.365Z,10.00
2017-05-21T22:26:06.679Z,9.90
2017-05-21T22:28:35.021Z,9.90
2017-05-21T22:31:03.336Z,9.90
2017-05-21T22:33:31.714Z,9.80
2017-05-21T22:36:00.028Z,9.80
2017-05-21T22:38:28.381Z,9.70
2017-05-21T22:40:56.708Z,9.70
2017-05-21T22:43:25.062Z,9.70
2017-05-21T22:45:53.370Z,9.70
2017-05-21T22:48:21.721Z,9.70
2017-05-21T22:50:50.028Z,9.60
2017-05-21T22:53:18.373Z,9.60
2017-05-21T22:55:46.689Z,9.60
2017-05-21T22:58:15.033Z,9.60
2017-05-21T23:00:43.363Z,9.60
2017-05-21T23:03:11.717Z,9.50
2017-05-21T23:05:40.038Z,9.50
2017-05-21T23:08:08.386Z,9.40
2017-05-21T23:10:36.699Z,9.40
2017-05-21T23:13:05.043Z,9.30
2017-05-21T23:15:33.357Z,9.30
2017-05-21T23:18:01.709Z,9.30
2017-05-21T23:20:30.032Z,9.10
2017-05-21T23:22:58.384Z,9.10
2017-05-21T23:25:26.712Z,9.00
2017-05-21T23:27:55.055Z,9.00
2017-05-21T23:30:23.371Z,9.00
2017-05-21T23:32:52.025Z,9.00
2017-05-21T23:35:20.347Z,8.90
2017-05-21T23:37:48.699Z,8.90
2017-05-21T23:40:17.012Z,8.90
2017-05-21T23:42:45.371Z,8.90
2017-05-21T23:45:13.684Z,8.80
2017-05-21T23:47:42.001Z,8.80
2017-05-21T23:50:10.347Z,8.70
2017-05-21T23:52:38.665Z,8.70
2017-05-21T23:55:07.032Z,8.70
2017-05-21T23:57:35.349Z,8.60
